Time;durP1;ratioP1;P1;durP2;ratioP2;P2;SDS_P1;SDS_P2;PMS_P1;PMS_P2;Temp;Humidity;BMP_temperature;BMP_pressure;BME280_temperature;BME280_humidity;BME280_pressure;Samples;Min_cycle;Max_cycle;Signal;HPM_P1;HPM_P2
2021/08/17 00:00:54;;;;;;;12.2;8.35;;;;;;;13.17;100;95370.48;;;;
2021/08/17 00:01:55;;;;;;;12.2;8.35;;;;;;;13.17;100;95370.48;;;;
2021/08/17 00:02:56;;;;;;;12.2;8.35;;;;;;;13.17;100;95370.48;;;;
2021/08/17 00:03:56;;;;;;;12.2;8.35;;;;;;;13.17;100;95370.48;;;;
2021/08/17 00:04:57;;;;;;;12.2;8.35;;;;;;;13.17;100;95370.48;;;;
2021/08/17 00:05:57;;;;;;;13.8;8.950001;;;;;;;12.93;100;95378.91;;;;
2021/08/17 00:06:58;;;;;;;13.8;8.950001;;;;;;;12.93;100;95378.91;;;;
2021/08/17 00:07:58;;;;;;;13.8;8.950001;;;;;;;12.93;100;95378.91;;;;
2021/08/17 00:09:01;;;;;;;13.8;8.950001;;;;;;;12.93;100;95378.91;;;;
2021/08/17 00:10:02;;;;;;;13.8;8.950001;;;;;;;12.93;100;95378.91;;;;
2021/08/17 00:11:03;;;;;;;13.8;8.950001;;;;;;;12.93;100;95378.91;;;;
2021/08/17 00:12:04;;;;;;;13.8;8.950001;;;;;;;12.93;100;95378.91;;;;
2021/08/17 00:13:04;;;;;;;13.8;8.950001;;;;;;;12.93;100;95378.91;;;;
2021/08/17 00:14:05;;;;;;;13.8;8.950001;;;;;;;12.93;100;95378.91;;;;
2021/08/17 00:15:06;;;;;;;13.8;8.950001;;;;;;;12.93;100;95378.91;;;;
2021/08/17 00:16:08;;;;;;;13.8;8.950001;;;;;;;12.93;100;95378.91;;;;
2021/08/17 00:17:11;;;;;;;11.4;7.949999;;;;;;;12.84;100;95363.75;;;;
2021/08/17 00:18:11;;;;;;;11.4;7.949999;;;;;;;12.84;100;95363.75;;;;
2021/08/17 00:19:12;;;;;;;11.4;7.949999;;;;;;;12.84;100;95363.75;;;;
2021/08/17 00:20:12;;;;;;;11.4;7.949999;;;;;;;12.84;100;95363.75;;;;
2021/08/17 00:21:13;;;;;;;11.4;7.949999;;;;;;;12.84;100;95363.75;;;;
2021/08/17 00:22:15;;;;;;;11.4;7.949999;;;;;;;12.84;100;95363.75;;;;
2021/08/17 00:23:15;;;;;;;11.4;7.949999;;;;;;;12.84;100;95363.75;;;;
2021/08/17 00:24:16;;;;;;;11.4;7.949999;;;;;;;12.84;100;95363.75;;;;
2021/08/17 00:25:17;;;;;;;11.4;7.949999;;;;;;;12.84;100;95363.75;;;;
2021/08/17 00:26:17;;;;;;;11.4;7.949999;;;;;;;12.84;100;95363.75;;;;
2021/08/17 00:27:18;;;;;;;11.3;8.3;;;;;;;12.87;100;95356.05;;;;
2021/08/17 00:28:18;;;;;;;11.3;8.3;;;;;;;12.87;100;95356.05;;;;
2021/08/17 00:29:19;;;;;;;11.3;8.3;;;;;;;12.87;100;95356.05;;;;
2021/08/17 00:30:19;;;;;;;11.3;8.3;;;;;;;12.87;100;95356.05;;;;
2021/08/17 00:31:20;;;;;;;11.3;8.3;;;;;;;12.87;100;95356.05;;;;
2021/08/17 00:32:20;;;;;;;11.3;8.3;;;;;;;12.87;100;95356.05;;;;
2021/08/17 00:33:21;;;;;;;11.3;8.3;;;;;;;12.87;100;95356.05;;;;
2021/08/17 00:34:22;;;;;;;11.3;8.3;;;;;;;12.87;100;95356.05;;;;
2021/08/17 00:35:22;;;;;;;11.3;8.3;;;;;;;12.87;100;95356.05;;;;
2021/08/17 00:36:23;;;;;;;11.3;8.3;;;;;;;12.87;100;95356.05;;;;
2021/08/17 00:37:23;;;;;;;11.3;8.3;;;;;;;12.87;100;95356.05;;;;
2021/08/17 00:38:24;;;;;;;12.6;8.900002;;;;;;;12.89;100;95360.69;;;;
2021/08/17 00:39:24;;;;;;;12.6;8.900002;;;;;;;12.89;100;95360.69;;;;
2021/08/17 00:40:25;;;;;;;12.6;8.900002;;;;;;;12.89;100;95360.69;;;;
2021/08/17 00:41:26;;;;;;;12.6;8.900002;;;;;;;12.89;100;95360.69;;;;
2021/08/17 00:42:27;;;;;;;12.6;8.900002;;;;;;;12.89;100;95360.69;;;;
2021/08/17 00:43:31;;;;;;;12.6;8.900002;;;;;;;12.89;100;95360.69;;;;
2021/08/17 00:44:33;;;;;;;12.6;8.900002;;;;;;;12.89;100;95360.69;;;;
2021/08/17 00:45:34;;;;;;;12.6;8.900002;;;;;;;12.89;100;95360.69;;;;
2021/08/17 00:46:35;;;;;;;12.6;8.900002;;;;;;;12.89;100;95360.69;;;;
2021/08/17 00:47:36;;;;;;;12.6;8.900002;;;;;;;12.89;100;95360.69;;;;
2021/08/17 00:48:36;;;;;;;14.95;8.900002;;;;;;;12.9;100;95355.55;;;;
2021/08/17 00:49:37;;;;;;;14.95;8.900002;;;;;;;12.9;100;95355.55;;;;
2021/08/17 00:50:37;;;;;;;14.95;8.900002;;;;;;;12.9;100;95355.55;;;;
2021/08/17 00:51:38;;;;;;;14.95;8.900002;;;;;;;12.9;100;95355.55;;;;
2021/08/17 00:52:38;;;;;;;14.95;8.900002;;;;;;;12.9;100;95355.55;;;;
2021/08/17 00:53:39;;;;;;;14.95;8.900002;;;;;;;12.9;100;95355.55;;;;
2021/08/17 00:54:40;;;;;;;14.95;8.900002;;;;;;;12.9;100;95355.55;;;;
2021/08/17 00:55:42;;;;;;;14.95;8.900002;;;;;;;12.9;100;95355.55;;;;
2021/08/17 00:56:42;;;;;;;14.95;8.900002;;;;;;;12.9;100;95355.55;;;;
2021/08/17 00:57:43;;;;;;;14.95;8.900002;;;;;;;12.9;100;95355.55;;;;
2021/08/17 00:58:45;;;;;;;14.95;8.900002;;;;;;;12.9;100;95355.55;;;;
2021/08/17 00:59:45;;;;;;;14.3;9.199999;;;;;;;12.9;100;95366.8;;;;
2021/08/17 01:00:46;;;;;;;14.3;9.199999;;;;;;;12.9;100;95366.8;;;;
2021/08/17 01:01:47;;;;;;;14.3;9.199999;;;;;;;12.9;100;95366.8;;;;
2021/08/17 01:02:48;;;;;;;14.3;9.199999;;;;;;;12.9;100;95366.8;;;;
2021/08/17 01:03:49;;;;;;;14.3;9.199999;;;;;;;12.9;100;95366.8;;;;
2021/08/17 01:04:50;;;;;;;14.3;9.199999;;;;;;;12.9;100;95366.8;;;;
2021/08/17 01:05:50;;;;;;;14.3;9.199999;;;;;;;12.9;100;95366.8;;;;
2021/08/17 01:06:51;;;;;;;14.3;9.199999;;;;;;;12.9;100;95366.8;;;;
2021/08/17 01:07:51;;;;;;;14.3;9.199999;;;;;;;12.9;100;95366.8;;;;
2021/08/17 01:08:52;;;;;;;14.3;9.199999;;;;;;;12.9;100;95366.8;;;;
2021/08/17 01:09:52;;;;;;;11.7;8.9;;;;;;;12.9;100;95371.42;;;;
2021/08/17 01:10:53;;;;;;;11.7;8.9;;;;;;;12.9;100;95371.42;;;;
2021/08/17 01:11:54;;;;;;;11.7;8.9;;;;;;;12.9;100;95371.42;;;;
2021/08/17 01:12:54;;;;;;;11.7;8.9;;;;;;;12.9;100;95371.42;;;;
2021/08/17 01:13:55;;;;;;;11.7;8.9;;;;;;;12.9;100;95371.42;;;;
2021/08/17 01:14:55;;;;;;;11.7;8.9;;;;;;;12.9;100;95371.42;;;;
2021/08/17 01:15:56;;;;;;;11.7;8.9;;;;;;;12.9;100;95371.42;;;;
2021/08/17 01:16:57;;;;;;;11.7;8.9;;;;;;;12.9;100;95371.42;;;;
2021/08/17 01:17:59;;;;;;;11.7;8.9;;;;;;;12.9;100;95371.42;;;;
2021/08/17 01:19:00;;;;;;;11.7;8.9;;;;;;;12.9;100;95371.42;;;;
2021/08/17 01:20:01;;;;;;;11.7;8.9;;;;;;;12.9;100;95371.42;;;;
2021/08/17 01:21:05;;;;;;;12.2;8.649999;;;;;;;12.88;100;95368.93;;;;
2021/08/17 01:22:06;;;;;;;12.2;8.649999;;;;;;;12.88;100;95368.93;;;;
2021/08/17 01:23:07;;;;;;;12.2;8.649999;;;;;;;12.88;100;95368.93;;;;
2021/08/17 01:24:07;;;;;;;12.2;8.649999;;;;;;;12.88;100;95368.93;;;;
2021/08/17 01:25:09;;;;;;;12.2;8.649999;;;;;;;12.88;100;95368.93;;;;
2021/08/17 01:26:10;;;;;;;12.2;8.649999;;;;;;;12.88;100;95368.93;;;;
2021/08/17 01:27:11;;;;;;;12.2;8.649999;;;;;;;12.88;100;95368.93;;;;
2021/08/17 01:28:13;;;;;;;12.2;8.649999;;;;;;;12.88;100;95368.93;;;;
2021/08/17 01:29:15;;;;;;;12.2;8.649999;;;;;;;12.88;100;95368.93;;;;
2021/08/17 01:30:16;;;;;;;12.2;8.649999;;;;;;;12.88;100;95368.93;;;;
2021/08/17 01:31:17;;;;;;;13.4;9.349999;;;;;;;12.8;100;95376.67;;;;
2021/08/17 01:32:18;;;;;;;13.4;9.349999;;;;;;;12.8;100;95376.67;;;;
2021/08/17 01:33:18;;;;;;;13.4;9.349999;;;;;;;12.8;100;95376.67;;;;
2021/08/17 01:34:19;;;;;;;13.4;9.349999;;;;;;;12.8;100;95376.67;;;;
2021/08/17 01:35:20;;;;;;;13.4;9.349999;;;;;;;12.8;100;95376.67;;;;
2021/08/17 01:36:20;;;;;;;13.4;9.349999;;;;;;;12.8;100;95376.67;;;;
2021/08/17 01:37:21;;;;;;;13.4;9.349999;;;;;;;12.8;100;95376.67;;;;
2021/08/17 01:38:21;;;;;;;13.4;9.349999;;;;;;;12.8;100;95376.67;;;;
2021/08/17 01:39:22;;;;;;;13.4;9.349999;;;;;;;12.8;100;95376.67;;;;
2021/08/17 01:40:22;;;;;;;13.4;9.349999;;;;;;;12.8;100;95376.67;;;;
2021/08/17 01:41:23;;;;;;;13.4;9.349999;;;;;;;12.8;100;95376.67;;;;
2021/08/17 01:42:24;;;;;;;12.95;8.9;;;;;;;12.85;100;95413.32;;;;
2021/08/17 01:43:25;;;;;;;12.95;8.9;;;;;;;12.85;100;95413.32;;;;
2021/08/17 01:44:25;;;;;;;12.95;8.9;;;;;;;12.85;100;95413.32;;;;
2021/08/17 01:45:26;;;;;;;12.95;8.9;;;;;;;12.85;100;95413.32;;;;
2021/08/17 01:46:26;;;;;;;12.95;8.9;;;;;;;12.85;100;95413.32;;;;
2021/08/17 01:47:27;;;;;;;12.95;8.9;;;;;;;12.85;100;95413.32;;;;
2021/08/17 01:48:28;;;;;;;12.95;8.9;;;;;;;12.85;100;95413.32;;;;
2021/08/17 01:49:30;;;;;;;12.95;8.9;;;;;;;12.85;100;95413.32;;;;
2021/08/17 01:50:31;;;;;;;12.95;8.9;;;;;;;12.85;100;95413.32;;;;
2021/08/17 01:51:31;;;;;;;12.95;8.9;;;;;;;12.85;100;95413.32;;;;
2021/08/17 01:52:32;;;;;;;6.05;4.199999;;;;;;;12.89;100;95442.83;;;;
2021/08/17 01:53:33;;;;;;;6.05;4.199999;;;;;;;12.89;100;95442.83;;;;
2021/08/17 01:54:34;;;;;;;6.05;4.199999;;;;;;;12.89;100;95442.83;;;;
2021/08/17 01:55:35;;;;;;;6.05;4.199999;;;;;;;12.89;100;95442.83;;;;
2021/08/17 01:56:35;;;;;;;6.05;4.199999;;;;;;;12.89;100;95442.83;;;;
2021/08/17 01:57:36;;;;;;;6.05;4.199999;;;;;;;12.89;100;95442.83;;;;
2021/08/17 01:58:36;;;;;;;6.05;4.199999;;;;;;;12.89;100;95442.83;;;;
2021/08/17 01:59:38;;;;;;;6.05;4.199999;;;;;;;12.89;100;95442.83;;;;
2021/08/17 02:00:38;;;;;;;6.05;4.199999;;;;;;;12.89;100;95442.83;;;;
2021/08/17 02:01:39;;;;;;;6.05;4.199999;;;;;;;12.89;100;95442.83;;;;
2021/08/17 02:02:40;;;;;;;6.05;4.199999;;;;;;;12.89;100;95442.83;;;;
2021/08/17 02:03:40;;;;;;;2.85;2.1;;;;;;;12.54;100;95458.45;;;;
2021/08/17 02:04:41;;;;;;;2.85;2.1;;;;;;;12.54;100;95458.45;;;;
2021/08/17 02:05:41;;;;;;;2.85;2.1;;;;;;;12.54;100;95458.45;;;;
2021/08/17 02:06:42;;;;;;;2.85;2.1;;;;;;;12.54;100;95458.45;;;;
2021/08/17 02:07:42;;;;;;;2.85;2.1;;;;;;;12.54;100;95458.45;;;;
2021/08/17 02:08:43;;;;;;;2.85;2.1;;;;;;;12.54;100;95458.45;;;;
2021/08/17 02:09:43;;;;;;;2.85;2.1;;;;;;;12.54;100;95458.45;;;;
2021/08/17 02:10:44;;;;;;;2.85;2.1;;;;;;;12.54;100;95458.45;;;;
2021/08/17 02:11:45;;;;;;;2.85;2.1;;;;;;;12.54;100;95458.45;;;;
2021/08/17 02:12:45;;;;;;;2.85;2.1;;;;;;;12.54;100;95458.45;;;;
2021/08/17 02:13:46;;;;;;;4.05;2.6;;;;;;;12.25;100;95436.52;;;;
2021/08/17 02:14:46;;;;;;;4.05;2.6;;;;;;;12.25;100;95436.52;;;;
2021/08/17 02:15:46;;;;;;;4.05;2.6;;;;;;;12.25;100;95436.52;;;;
2021/08/17 02:16:48;;;;;;;4.05;2.6;;;;;;;12.25;100;95436.52;;;;
2021/08/17 02:17:49;;;;;;;4.05;2.6;;;;;;;12.25;100;95436.52;;;;
2021/08/17 02:18:49;;;;;;;4.05;2.6;;;;;;;12.25;100;95436.52;;;;
2021/08/17 02:19:50;;;;;;;4.05;2.6;;;;;;;12.25;100;95436.52;;;;
2021/08/17 02:20:50;;;;;;;4.05;2.6;;;;;;;12.25;100;95436.52;;;;
2021/08/17 02:21:51;;;;;;;4.05;2.6;;;;;;;12.25;100;95436.52;;;;
2021/08/17 02:22:51;;;;;;;4.05;2.6;;;;;;;12.25;100;95436.52;;;;
2021/08/17 02:23:51;;;;;;;4.05;2.6;;;;;;;12.25;100;95436.52;;;;
2021/08/17 02:24:52;;;;;;;2.150001;1.45;;;;;;;12.1;100;95466.96;;;;
2021/08/17 02:25:53;;;;;;;2.150001;1.45;;;;;;;12.1;100;95466.96;;;;
2021/08/17 02:26:53;;;;;;;2.150001;1.45;;;;;;;12.1;100;95466.96;;;;
2021/08/17 02:27:54;;;;;;;2.150001;1.45;;;;;;;12.1;100;95466.96;;;;
2021/08/17 02:28:54;;;;;;;2.150001;1.45;;;;;;;12.1;100;95466.96;;;;
2021/08/17 02:29:55;;;;;;;2.150001;1.45;;;;;;;12.1;100;95466.96;;;;
2021/08/17 02:30:55;;;;;;;2.150001;1.45;;;;;;;12.1;100;95466.96;;;;
2021/08/17 02:31:56;;;;;;;2.150001;1.45;;;;;;;12.1;100;95466.96;;;;
2021/08/17 02:32:56;;;;;;;2.150001;1.45;;;;;;;12.1;100;95466.96;;;;
2021/08/17 02:33:57;;;;;;;2.150001;1.45;;;;;;;12.1;100;95466.96;;;;
2021/08/17 02:34:57;;;;;;;2.150001;1.45;;;;;;;12.1;100;95466.96;;;;
2021/08/17 02:35:58;;;;;;;1.75;1.4;;;;;;;11.89;100;95474.38;;;;
2021/08/17 02:36:59;;;;;;;1.75;1.4;;;;;;;11.89;100;95474.38;;;;
2021/08/17 02:37:59;;;;;;;1.75;1.4;;;;;;;11.89;100;95474.38;;;;
2021/08/17 02:39:00;;;;;;;1.75;1.4;;;;;;;11.89;100;95474.38;;;;
2021/08/17 02:40:00;;;;;;;1.75;1.4;;;;;;;11.89;100;95474.38;;;;
2021/08/17 02:41:01;;;;;;;1.75;1.4;;;;;;;11.89;100;95474.38;;;;
2021/08/17 02:42:02;;;;;;;1.75;1.4;;;;;;;11.89;100;95474.38;;;;
2021/08/17 02:43:03;;;;;;;1.75;1.4;;;;;;;11.89;100;95474.38;;;;
2021/08/17 02:44:04;;;;;;;1.75;1.4;;;;;;;11.89;100;95474.38;;;;
2021/08/17 02:45:05;;;;;;;1.75;1.4;;;;;;;11.89;100;95474.38;;;;
2021/08/17 02:46:06;;;;;;;2.5;1.8;;;;;;;11.76;100;95490.76;;;;
2021/08/17 02:47:07;;;;;;;2.5;1.8;;;;;;;11.76;100;95490.76;;;;
2021/08/17 02:48:08;;;;;;;2.5;1.8;;;;;;;11.76;100;95490.76;;;;
2021/08/17 02:49:09;;;;;;;2.5;1.8;;;;;;;11.76;100;95490.76;;;;
2021/08/17 02:50:10;;;;;;;2.5;1.8;;;;;;;11.76;100;95490.76;;;;
2021/08/17 02:51:11;;;;;;;2.5;1.8;;;;;;;11.76;100;95490.76;;;;
2021/08/17 02:52:11;;;;;;;2.5;1.8;;;;;;;11.76;100;95490.76;;;;
2021/08/17 02:53:12;;;;;;;2.5;1.8;;;;;;;11.76;100;95490.76;;;;
2021/08/17 02:54:12;;;;;;;2.5;1.8;;;;;;;11.76;100;95490.76;;;;
2021/08/17 02:55:13;;;;;;;2.5;1.8;;;;;;;11.76;100;95490.76;;;;
2021/08/17 02:56:14;;;;;;;2.5;1.8;;;;;;;11.76;100;95490.76;;;;
2021/08/17 02:57:14;;;;;;;2.75;1.9;;;;;;;11.74;100;95499.22;;;;
2021/08/17 02:58:16;;;;;;;2.75;1.9;;;;;;;11.74;100;95499.22;;;;
2021/08/17 02:59:16;;;;;;;2.75;1.9;;;;;;;11.74;100;95499.22;;;;
2021/08/17 03:00:17;;;;;;;2.75;1.9;;;;;;;11.74;100;95499.22;;;;
2021/08/17 03:01:19;;;;;;;2.75;1.9;;;;;;;11.74;100;95499.22;;;;
2021/08/17 03:02:19;;;;;;;2.75;1.9;;;;;;;11.74;100;95499.22;;;;
2021/08/17 03:03:20;;;;;;;2.75;1.9;;;;;;;11.74;100;95499.22;;;;
2021/08/17 03:04:20;;;;;;;2.75;1.9;;;;;;;11.74;100;95499.22;;;;
2021/08/17 03:05:21;;;;;;;2.75;1.9;;;;;;;11.74;100;95499.22;;;;
2021/08/17 03:06:21;;;;;;;2.75;1.9;;;;;;;11.74;100;95499.22;;;;
2021/08/17 03:07:22;;;;;;;2.4;2;;;;;;;11.73;100;95511.08;;;;
2021/08/17 03:08:22;;;;;;;2.4;2;;;;;;;11.73;100;95511.08;;;;
2021/08/17 03:09:23;;;;;;;2.4;2;;;;;;;11.73;100;95511.08;;;;
2021/08/17 03:10:23;;;;;;;2.4;2;;;;;;;11.73;100;95511.08;;;;
2021/08/17 03:11:25;;;;;;;2.4;2;;;;;;;11.73;100;95511.08;;;;
2021/08/17 03:12:25;;;;;;;2.4;2;;;;;;;11.73;100;95511.08;;;;
2021/08/17 03:13:26;;;;;;;2.4;2;;;;;;;11.73;100;95511.08;;;;
2021/08/17 03:14:26;;;;;;;2.4;2;;;;;;;11.73;100;95511.08;;;;
2021/08/17 03:15:32;;;;;;;2.4;2;;;;;;;11.73;100;95511.08;;;;
2021/08/17 03:16:33;;;;;;;2.4;2;;;;;;;11.73;100;95511.08;;;;
2021/08/17 03:17:37;;;;;;;2.4;2;;;;;;;11.73;100;95511.08;;;;
2021/08/17 03:18:38;;;;;;;3.4;2.35;;;;;;;11.69;100;95507.23;;;;
2021/08/17 03:19:38;;;;;;;3.4;2.35;;;;;;;11.69;100;95507.23;;;;
2021/08/17 03:20:39;;;;;;;3.4;2.35;;;;;;;11.69;100;95507.23;;;;
2021/08/17 03:21:39;;;;;;;3.4;2.35;;;;;;;11.69;100;95507.23;;;;
2021/08/17 03:22:40;;;;;;;3.4;2.35;;;;;;;11.69;100;95507.23;;;;
2021/08/17 03:23:41;;;;;;;3.4;2.35;;;;;;;11.69;100;95507.23;;;;
2021/08/17 03:24:42;;;;;;;3.4;2.35;;;;;;;11.69;100;95507.23;;;;
2021/08/17 03:25:43;;;;;;;3.4;2.35;;;;;;;11.69;100;95507.23;;;;
2021/08/17 03:26:43;;;;;;;3.4;2.35;;;;;;;11.69;100;95507.23;;;;
2021/08/17 03:27:44;;;;;;;3.4;2.35;;;;;;;11.69;100;95507.23;;;;
2021/08/17 03:28:44;;;;;;;3.4;2.65;;;;;;;11.62;100;95514.59;;;;
2021/08/17 03:29:45;;;;;;;3.4;2.65;;;;;;;11.62;100;95514.59;;;;
2021/08/17 03:30:45;;;;;;;3.4;2.65;;;;;;;11.62;100;95514.59;;;;
2021/08/17 03:31:46;;;;;;;3.4;2.65;;;;;;;11.62;100;95514.59;;;;
2021/08/17 03:32:47;;;;;;;3.4;2.65;;;;;;;11.62;100;95514.59;;;;
2021/08/17 03:33:47;;;;;;;3.4;2.65;;;;;;;11.62;100;95514.59;;;;
2021/08/17 03:34:48;;;;;;;3.4;2.65;;;;;;;11.62;100;95514.59;;;;
2021/08/17 03:35:48;;;;;;;3.4;2.65;;;;;;;11.62;100;95514.59;;;;
2021/08/17 03:36:49;;;;;;;3.4;2.65;;;;;;;11.62;100;95514.59;;;;
2021/08/17 03:37:50;;;;;;;3.4;2.65;;;;;;;11.62;100;95514.59;;;;
2021/08/17 03:38:50;;;;;;;3.4;2.65;;;;;;;11.62;100;95514.59;;;;
2021/08/17 03:39:51;;;;;;;4.45;2.6;;;;;;;11.64;100;95521;;;;
2021/08/17 03:40:51;;;;;;;4.45;2.6;;;;;;;11.64;100;95521;;;;
2021/08/17 03:41:52;;;;;;;4.45;2.6;;;;;;;11.64;100;95521;;;;
2021/08/17 03:42:52;;;;;;;4.45;2.6;;;;;;;11.64;100;95521;;;;
2021/08/17 03:43:53;;;;;;;4.45;2.6;;;;;;;11.64;100;95521;;;;
2021/08/17 03:44:54;;;;;;;4.45;2.6;;;;;;;11.64;100;95521;;;;
2021/08/17 03:45:54;;;;;;;4.45;2.6;;;;;;;11.64;100;95521;;;;
2021/08/17 03:46:55;;;;;;;4.45;2.6;;;;;;;11.64;100;95521;;;;
2021/08/17 03:47:56;;;;;;;4.45;2.6;;;;;;;11.64;100;95521;;;;
2021/08/17 03:48:56;;;;;;;4.45;2.6;;;;;;;11.64;100;95521;;;;
2021/08/17 03:49:56;;;;;;;3.95;2.25;;;;;;;11.63;100;95539.76;;;;
2021/08/17 03:50:57;;;;;;;3.95;2.25;;;;;;;11.63;100;95539.76;;;;
2021/08/17 03:51:58;;;;;;;3.95;2.25;;;;;;;11.63;100;95539.76;;;;
2021/08/17 03:52:59;;;;;;;3.95;2.25;;;;;;;11.63;100;95539.76;;;;
2021/08/17 03:53:59;;;;;;;3.95;2.25;;;;;;;11.63;100;95539.76;;;;
2021/08/17 03:55:00;;;;;;;3.95;2.25;;;;;;;11.63;100;95539.76;;;;
2021/08/17 03:56:01;;;;;;;3.95;2.25;;;;;;;11.63;100;95539.76;;;;
2021/08/17 03:57:01;;;;;;;3.95;2.25;;;;;;;11.63;100;95539.76;;;;
2021/08/17 03:58:02;;;;;;;3.95;2.25;;;;;;;11.63;100;95539.76;;;;
2021/08/17 03:59:03;;;;;;;3.95;2.25;;;;;;;11.63;100;95539.76;;;;
2021/08/17 04:00:03;;;;;;;3.95;2.25;;;;;;;11.63;100;95539.76;;;;
2021/08/17 04:01:07;;;;;;;3.749999;2.45;;;;;;;11.63;100;95543.81;;;;
2021/08/17 04:02:07;;;;;;;3.749999;2.45;;;;;;;11.63;100;95543.81;;;;
2021/08/17 04:03:08;;;;;;;3.749999;2.45;;;;;;;11.63;100;95543.81;;;;
2021/08/17 04:04:09;;;;;;;3.749999;2.45;;;;;;;11.63;100;95543.81;;;;
2021/08/17 04:05:09;;;;;;;3.749999;2.45;;;;;;;11.63;100;95543.81;;;;
2021/08/17 04:06:10;;;;;;;3.749999;2.45;;;;;;;11.63;100;95543.81;;;;
2021/08/17 04:07:11;;;;;;;3.749999;2.45;;;;;;;11.63;100;95543.81;;;;
2021/08/17 04:08:11;;;;;;;3.749999;2.45;;;;;;;11.63;100;95543.81;;;;
2021/08/17 04:09:12;;;;;;;3.749999;2.45;;;;;;;11.63;100;95543.81;;;;
2021/08/17 04:10:12;;;;;;;3.749999;2.45;;;;;;;11.63;100;95543.81;;;;
2021/08/17 04:11:13;;;;;;;3.6;2.25;;;;;;;11.57;100;95543.7;;;;
2021/08/17 04:12:14;;;;;;;3.6;2.25;;;;;;;11.57;100;95543.7;;;;
2021/08/17 04:13:14;;;;;;;3.6;2.25;;;;;;;11.57;100;95543.7;;;;
2021/08/17 04:14:15;;;;;;;3.6;2.25;;;;;;;11.57;100;95543.7;;;;
2021/08/17 04:15:15;;;;;;;3.6;2.25;;;;;;;11.57;100;95543.7;;;;
2021/08/17 04:16:16;;;;;;;3.6;2.25;;;;;;;11.57;100;95543.7;;;;
2021/08/17 04:17:16;;;;;;;3.6;2.25;;;;;;;11.57;100;95543.7;;;;
2021/08/17 04:18:17;;;;;;;3.6;2.25;;;;;;;11.57;100;95543.7;;;;
2021/08/17 04:19:17;;;;;;;3.6;2.25;;;;;;;11.57;100;95543.7;;;;
2021/08/17 04:20:18;;;;;;;3.6;2.25;;;;;;;11.57;100;95543.7;;;;
2021/08/17 04:21:18;;;;;;;3.6;2.25;;;;;;;11.57;100;95543.7;;;;
2021/08/17 04:22:20;;;;;;;3.1;2.2;;;;;;;11.48;100;95558.22;;;;
2021/08/17 04:23:21;;;;;;;3.1;2.2;;;;;;;11.48;100;95558.22;;;;
2021/08/17 04:24:21;;;;;;;3.1;2.2;;;;;;;11.48;100;95558.22;;;;
2021/08/17 04:25:22;;;;;;;3.1;2.2;;;;;;;11.48;100;95558.22;;;;
2021/08/17 04:26:22;;;;;;;3.1;2.2;;;;;;;11.48;100;95558.22;;;;
2021/08/17 04:27:23;;;;;;;3.1;2.2;;;;;;;11.48;100;95558.22;;;;
2021/08/17 04:28:24;;;;;;;3.1;2.2;;;;;;;11.48;100;95558.22;;;;
2021/08/17 04:29:24;;;;;;;3.1;2.2;;;;;;;11.48;100;95558.22;;;;
2021/08/17 04:30:25;;;;;;;3.1;2.2;;;;;;;11.48;100;95558.22;;;;
2021/08/17 04:31:25;;;;;;;3.1;2.2;;;;;;;11.48;100;95558.22;;;;
2021/08/17 04:32:26;;;;;;;3.5;2.6;;;;;;;11.34;100;95568.56;;;;
2021/08/17 04:33:27;;;;;;;3.5;2.6;;;;;;;11.34;100;95568.56;;;;
2021/08/17 04:34:27;;;;;;;3.5;2.6;;;;;;;11.34;100;95568.56;;;;
2021/08/17 04:35:27;;;;;;;3.5;2.6;;;;;;;11.34;100;95568.56;;;;
2021/08/17 04:36:28;;;;;;;3.5;2.6;;;;;;;11.34;100;95568.56;;;;
2021/08/17 04:37:29;;;;;;;3.5;2.6;;;;;;;11.34;100;95568.56;;;;
2021/08/17 04:38:29;;;;;;;3.5;2.6;;;;;;;11.34;100;95568.56;;;;
2021/08/17 04:39:30;;;;;;;3.5;2.6;;;;;;;11.34;100;95568.56;;;;
2021/08/17 04:40:30;;;;;;;3.5;2.6;;;;;;;11.34;100;95568.56;;;;
2021/08/17 04:41:31;;;;;;;3.5;2.6;;;;;;;11.34;100;95568.56;;;;
2021/08/17 04:42:32;;;;;;;3.5;2.6;;;;;;;11.34;100;95568.56;;;;
2021/08/17 04:43:32;;;;;;;3;2.5;;;;;;;11.29;100;95580.61;;;;
2021/08/17 04:44:33;;;;;;;3;2.5;;;;;;;11.29;100;95580.61;;;;
2021/08/17 04:45:34;;;;;;;3;2.5;;;;;;;11.29;100;95580.61;;;;
2021/08/17 04:46:34;;;;;;;3;2.5;;;;;;;11.29;100;95580.61;;;;
2021/08/17 04:47:35;;;;;;;3;2.5;;;;;;;11.29;100;95580.61;;;;
2021/08/17 04:48:43;;;;;;;3;2.5;;;;;;;11.29;100;95580.61;;;;
2021/08/17 04:49:44;;;;;;;3;2.5;;;;;;;11.29;100;95580.61;;;;
2021/08/17 04:50:44;;;;;;;3;2.5;;;;;;;11.29;100;95580.61;;;;
2021/08/17 04:51:45;;;;;;;3;2.5;;;;;;;11.29;100;95580.61;;;;
2021/08/17 04:52:45;;;;;;;3;2.5;;;;;;;11.29;100;95580.61;;;;
2021/08/17 04:53:46;;;;;;;4.05;2.6;;;;;;;11.19;100;95585.22;;;;
2021/08/17 04:54:47;;;;;;;4.05;2.6;;;;;;;11.19;100;95585.22;;;;
2021/08/17 04:55:47;;;;;;;4.05;2.6;;;;;;;11.19;100;95585.22;;;;
2021/08/17 04:56:48;;;;;;;4.05;2.6;;;;;;;11.19;100;95585.22;;;;
2021/08/17 04:57:48;;;;;;;4.05;2.6;;;;;;;11.19;100;95585.22;;;;
2021/08/17 04:58:52;;;;;;;4.05;2.6;;;;;;;11.19;100;95585.22;;;;
2021/08/17 04:59:53;;;;;;;4.05;2.6;;;;;;;11.19;100;95585.22;;;;
2021/08/17 05:00:53;;;;;;;4.05;2.6;;;;;;;11.19;100;95585.22;;;;
2021/08/17 05:01:54;;;;;;;4.05;2.6;;;;;;;11.19;100;95585.22;;;;
2021/08/17 05:02:54;;;;;;;4.05;2.6;;;;;;;11.19;100;95585.22;;;;
2021/08/17 05:03:56;;;;;;;4.05;2.6;;;;;;;11.19;100;95585.22;;;;
2021/08/17 05:04:57;;;;;;;5.1;3;;;;;;;11.25;100;95610.92;;;;
2021/08/17 05:05:57;;;;;;;5.1;3;;;;;;;11.25;100;95610.92;;;;
2021/08/17 05:06:57;;;;;;;5.1;3;;;;;;;11.25;100;95610.92;;;;
2021/08/17 05:07:58;;;;;;;5.1;3;;;;;;;11.25;100;95610.92;;;;
2021/08/17 05:09:04;;;;;;;5.1;3;;;;;;;11.25;100;95610.92;;;;
2021/08/17 05:10:04;;;;;;;5.1;3;;;;;;;11.25;100;95610.92;;;;
2021/08/17 05:11:05;;;;;;;5.1;3;;;;;;;11.25;100;95610.92;;;;
2021/08/17 05:12:06;;;;;;;5.1;3;;;;;;;11.25;100;95610.92;;;;
2021/08/17 05:13:07;;;;;;;5.1;3;;;;;;;11.25;100;95610.92;;;;
2021/08/17 05:14:07;;;;;;;5.1;3;;;;;;;11.25;100;95610.92;;;;
2021/08/17 05:15:08;;;;;;;5.15;3.1;;;;;;;11.66;100;95628.05;;;;
2021/08/17 05:16:11;;;;;;;5.15;3.1;;;;;;;11.66;100;95628.05;;;;
2021/08/17 05:17:11;;;;;;;5.15;3.1;;;;;;;11.66;100;95628.05;;;;
2021/08/17 05:18:12;;;;;;;5.15;3.1;;;;;;;11.66;100;95628.05;;;;
2021/08/17 05:19:12;;;;;;;5.15;3.1;;;;;;;11.66;100;95628.05;;;;
2021/08/17 05:20:13;;;;;;;5.15;3.1;;;;;;;11.66;100;95628.05;;;;
2021/08/17 05:21:13;;;;;;;5.15;3.1;;;;;;;11.66;100;95628.05;;;;
2021/08/17 05:22:14;;;;;;;5.15;3.1;;;;;;;11.66;100;95628.05;;;;
2021/08/17 05:23:14;;;;;;;5.15;3.1;;;;;;;11.66;100;95628.05;;;;
2021/08/17 05:24:15;;;;;;;5.15;3.1;;;;;;;11.66;100;95628.05;;;;
2021/08/17 05:25:15;;;;;;;5.15;3.1;;;;;;;11.66;100;95628.05;;;;
2021/08/17 05:26:16;;;;;;;3.95;2.65;;;;;;;12.03;100;95624.59;;;;
2021/08/17 05:27:17;;;;;;;3.95;2.65;;;;;;;12.03;100;95624.59;;;;
2021/08/17 05:28:18;;;;;;;3.95;2.65;;;;;;;12.03;100;95624.59;;;;
2021/08/17 05:29:18;;;;;;;3.95;2.65;;;;;;;12.03;100;95624.59;;;;
2021/08/17 05:30:19;;;;;;;3.95;2.65;;;;;;;12.03;100;95624.59;;;;
2021/08/17 05:31:20;;;;;;;3.95;2.65;;;;;;;12.03;100;95624.59;;;;
2021/08/17 05:32:21;;;;;;;3.95;2.65;;;;;;;12.03;100;95624.59;;;;
2021/08/17 05:33:22;;;;;;;3.95;2.65;;;;;;;12.03;100;95624.59;;;;
2021/08/17 05:34:22;;;;;;;3.95;2.65;;;;;;;12.03;100;95624.59;;;;
2021/08/17 05:35:23;;;;;;;3.95;2.65;;;;;;;12.03;100;95624.59;;;;
2021/08/17 05:36:23;;;;;;;3.95;2.65;;;;;;;12.03;100;95624.59;;;;
2021/08/17 05:37:24;;;;;;;4.400001;2.8;;;;;;;12.26;100;95634.88;;;;
2021/08/17 05:38:24;;;;;;;4.400001;2.8;;;;;;;12.26;100;95634.88;;;;
2021/08/17 05:39:25;;;;;;;4.400001;2.8;;;;;;;12.26;100;95634.88;;;;
2021/08/17 05:40:25;;;;;;;4.400001;2.8;;;;;;;12.26;100;95634.88;;;;
2021/08/17 05:41:26;;;;;;;4.400001;2.8;;;;;;;12.26;100;95634.88;;;;
2021/08/17 05:42:26;;;;;;;4.400001;2.8;;;;;;;12.26;100;95634.88;;;;
2021/08/17 05:43:27;;;;;;;4.400001;2.8;;;;;;;12.26;100;95634.88;;;;
2021/08/17 05:44:27;;;;;;;4.400001;2.8;;;;;;;12.26;100;95634.88;;;;
2021/08/17 05:45:28;;;;;;;4.400001;2.8;;;;;;;12.26;100;95634.88;;;;
2021/08/17 05:46:28;;;;;;;4.400001;2.8;;;;;;;12.26;100;95634.88;;;;
2021/08/17 05:47:31;;;;;;;4.25;3.15;;;;;;;12.27;100;95642.07;;;;
2021/08/17 05:48:32;;;;;;;4.25;3.15;;;;;;;12.27;100;95642.07;;;;
2021/08/17 05:49:33;;;;;;;4.25;3.15;;;;;;;12.27;100;95642.07;;;;
2021/08/17 05:50:33;;;;;;;4.25;3.15;;;;;;;12.27;100;95642.07;;;;
2021/08/17 05:51:34;;;;;;;4.25;3.15;;;;;;;12.27;100;95642.07;;;;
2021/08/17 05:52:37;;;;;;;4.25;3.15;;;;;;;12.27;100;95642.07;;;;
2021/08/17 05:53:37;;;;;;;4.25;3.15;;;;;;;12.27;100;95642.07;;;;
2021/08/17 05:54:38;;;;;;;4.25;3.15;;;;;;;12.27;100;95642.07;;;;
2021/08/17 05:55:39;;;;;;;4.25;3.15;;;;;;;12.27;100;95642.07;;;;
2021/08/17 05:56:39;;;;;;;4.25;3.15;;;;;;;12.27;100;95642.07;;;;
2021/08/17 05:57:40;;;;;;;4.25;3.15;;;;;;;12.27;100;95642.07;;;;
2021/08/17 05:58:41;;;;;;;5.15;3.8;;;;;;;12.15;100;95644.76;;;;
2021/08/17 05:59:41;;;;;;;5.15;3.8;;;;;;;12.15;100;95644.76;;;;
2021/08/17 06:00:41;;;;;;;5.15;3.8;;;;;;;12.15;100;95644.76;;;;
2021/08/17 06:01:42;;;;;;;5.15;3.8;;;;;;;12.15;100;95644.76;;;;
2021/08/17 06:02:43;;;;;;;5.15;3.8;;;;;;;12.15;100;95644.76;;;;
2021/08/17 06:03:43;;;;;;;5.15;3.8;;;;;;;12.15;100;95644.76;;;;
2021/08/17 06:04:43;;;;;;;5.15;3.8;;;;;;;12.15;100;95644.76;;;;
2021/08/17 06:05:44;;;;;;;5.15;3.8;;;;;;;12.15;100;95644.76;;;;
2021/08/17 06:06:46;;;;;;;5.15;3.8;;;;;;;12.15;100;95644.76;;;;
2021/08/17 06:07:46;;;;;;;5.15;3.8;;;;;;;12.15;100;95644.76;;;;
2021/08/17 06:08:51;;;;;;;5.85;3.8;;;;;;;12.12;100;95652.43;;;;
2021/08/17 06:09:52;;;;;;;5.85;3.8;;;;;;;12.12;100;95652.43;;;;